sensor_id;sensor_type;location;lat;lon;timestamp;P1;durP1;ratioP1;P2;durP2;ratioP2
40176;SDS011;31511;46.176;9.874;2024-01-15T00:01:18;29.90;;;19.37;;
40176;SDS011;31511;46.176;9.874;2024-01-15T00:04:03;30.50;;;18.58;;
40176;SDS011;31511;46.176;9.874;2024-01-15T00:09:32;28.85;;;16.30;;
40176;SDS011;31511;46.176;9.874;2024-01-15T00:12:16;24.70;;;14.57;;
40176;SDS011;31511;46.176;9.874;2024-01-15T00:15:01;21.08;;;13.02;;
40176;SDS011;31511;46.176;9.874;2024-01-15T00:17:46;18.65;;;13.10;;
40176;SDS011;31511;46.176;9.874;2024-01-15T00:20:30;23.38;;;12.95;;
40176;SDS011;31511;46.176;9.874;2024-01-15T00:23:15;20.38;;;12.00;;
40176;SDS011;31511;46.176;9.874;2024-01-15T00:25:59;20.90;;;11.52;;
40176;SDS011;31511;46.176;9.874;2024-01-15T00:28:44;20.67;;;12.68;;
40176;SDS011;31511;46.176;9.874;2024-01-15T00:31:29;28.20;;;12.50;;
40176;SDS011;31511;46.176;9.874;2024-01-15T00:34:14;22.20;;;12.07;;
40176;SDS011;31511;46.176;9.874;2024-01-15T00:36:58;23.58;;;12.63;;
40176;SDS011;31511;46.176;9.874;2024-01-15T00:39:43;19.45;;;12.00;;
40176;SDS011;31511;46.176;9.874;2024-01-15T00:42:28;18.58;;;11.73;;
40176;SDS011;31511;46.176;9.874;2024-01-15T00:45:12;21.20;;;10.63;;
40176;SDS011;31511;46.176;9.874;2024-01-15T00:47:57;21.45;;;9.55;;
40176;SDS011;31511;46.176;9.874;2024-01-15T00:50:43;14.83;;;7.77;;
40176;SDS011;31511;46.176;9.874;2024-01-15T00:53:28;14.10;;;9.15;;
40176;SDS011;31511;46.176;9.874;2024-01-15T00:56:12;17.20;;;11.02;;
40176;SDS011;31511;46.176;9.874;2024-01-15T00:58:57;19.83;;;11.55;;
40176;SDS011;31511;46.176;9.874;2024-01-15T01:01:42;15.77;;;9.32;;
40176;SDS011;31511;46.176;9.874;2024-01-15T01:04:27;18.47;;;9.20;;
40176;SDS011;31511;46.176;9.874;2024-01-15T01:07:12;19.42;;;11.45;;
40176;SDS011;31511;46.176;9.874;2024-01-15T01:09:56;12.85;;;7.47;;
40176;SDS011;31511;46.176;9.874;2024-01-15T01:12:41;19.23;;;12.48;;
40176;SDS011;31511;46.176;9.874;2024-01-15T01:15:25;20.30;;;12.48;;
40176;SDS011;31511;46.176;9.874;2024-01-15T01:18:11;18.57;;;10.80;;
40176;SDS011;31511;46.176;9.874;2024-01-15T01:20:55;18.27;;;11.40;;
40176;SDS011;31511;46.176;9.874;2024-01-15T01:23:40;16.45;;;10.02;;
40176;SDS011;31511;46.176;9.874;2024-01-15T01:26:25;15.52;;;7.57;;
40176;SDS011;31511;46.176;9.874;2024-01-15T01:29:09;15.18;;;9.18;;
40176;SDS011;31511;46.176;9.874;2024-01-15T01:34:40;13.80;;;9.00;;
40176;SDS011;31511;46.176;9.874;2024-01-15T01:37:28;16.93;;;8.67;;
40176;SDS011;31511;46.176;9.874;2024-01-15T01:40:12;12.77;;;8.02;;
40176;SDS011;31511;46.176;9.874;2024-01-15T01:42:57;9.98;;;6.72;;
40176;SDS011;31511;46.176;9.874;2024-01-15T01:45:42;16.23;;;8.82;;
40176;SDS011;31511;46.176;9.874;2024-01-15T01:48:26;13.70;;;8.98;;
40176;SDS011;31511;46.176;9.874;2024-01-15T01:51:12;14.93;;;9.07;;
40176;SDS011;31511;46.176;9.874;2024-01-15T01:53:56;22.77;;;10.17;;
40176;SDS011;31511;46.176;9.874;2024-01-15T01:59:26;27.03;;;15.00;;
40176;SDS011;31511;46.176;9.874;2024-01-15T02:02:11;21.87;;;13.93;;
40176;SDS011;31511;46.176;9.874;2024-01-15T02:07:41;11.38;;;6.82;;
40176;SDS011;31511;46.176;9.874;2024-01-15T02:10:25;16.58;;;9.52;;
40176;SDS011;31511;46.176;9.874;2024-01-15T02:13:10;12.23;;;8.07;;
40176;SDS011;31511;46.176;9.874;2024-01-15T02:15:55;12.23;;;7.30;;
40176;SDS011;31511;46.176;9.874;2024-01-15T02:18:40;14.38;;;7.28;;
40176;SDS011;31511;46.176;9.874;2024-01-15T02:21:25;12.47;;;7.77;;
40176;SDS011;31511;46.176;9.874;2024-01-15T02:24:12;10.70;;;6.77;;
40176;SDS011;31511;46.176;9.874;2024-01-15T02:26:57;14.93;;;9.17;;
40176;SDS011;31511;46.176;9.874;2024-01-15T02:29:41;17.30;;;8.63;;
40176;SDS011;31511;46.176;9.874;2024-01-15T02:32:26;12.80;;;6.95;;
40176;SDS011;31511;46.176;9.874;2024-01-15T02:35:11;8.27;;;5.65;;
40176;SDS011;31511;46.176;9.874;2024-01-15T02:37:55;17.83;;;8.20;;
40176;SDS011;31511;46.176;9.874;2024-01-15T02:40:40;7.70;;;5.10;;
40176;SDS011;31511;46.176;9.874;2024-01-15T02:43:24;13.68;;;8.38;;
40176;SDS011;31511;46.176;9.874;2024-01-15T02:46:09;18.67;;;10.48;;
40176;SDS011;31511;46.176;9.874;2024-01-15T02:48:53;15.10;;;10.13;;
40176;SDS011;31511;46.176;9.874;2024-01-15T02:51:38;15.35;;;9.18;;
40176;SDS011;31511;46.176;9.874;2024-01-15T02:54:22;13.90;;;8.93;;
40176;SDS011;31511;46.176;9.874;2024-01-15T02:57:07;13.18;;;8.45;;
40176;SDS011;31511;46.176;9.874;2024-01-15T02:59:51;16.70;;;8.30;;
40176;SDS011;31511;46.176;9.874;2024-01-15T03:02:36;12.18;;;7.68;;
40176;SDS011;31511;46.176;9.874;2024-01-15T03:05:23;12.80;;;8.17;;
40176;SDS011;31511;46.176;9.874;2024-01-15T03:08:07;12.40;;;8.38;;
40176;SDS011;31511;46.176;9.874;2024-01-15T03:10:52;12.32;;;6.55;;
40176;SDS011;31511;46.176;9.874;2024-01-15T03:13:37;10.43;;;6.75;;
40176;SDS011;31511;46.176;9.874;2024-01-15T03:16:22;11.40;;;6.77;;
40176;SDS011;31511;46.176;9.874;2024-01-15T03:19:06;10.20;;;6.07;;
40176;SDS011;31511;46.176;9.874;2024-01-15T03:21:51;7.40;;;5.63;;
40176;SDS011;31511;46.176;9.874;2024-01-15T03:24:35;11.93;;;5.65;;
40176;SDS011;31511;46.176;9.874;2024-01-15T03:27:20;11.30;;;7.00;;
40176;SDS011;31511;46.176;9.874;2024-01-15T03:30:05;13.35;;;7.95;;
40176;SDS011;31511;46.176;9.874;2024-01-15T03:32:50;17.20;;;10.00;;
40176;SDS011;31511;46.176;9.874;2024-01-15T03:35:35;21.75;;;10.77;;
40176;SDS011;31511;46.176;9.874;2024-01-15T03:38:19;15.02;;;9.52;;
40176;SDS011;31511;46.176;9.874;2024-01-15T03:41:04;13.10;;;7.80;;
40176;SDS011;31511;46.176;9.874;2024-01-15T03:43:48;12.75;;;7.72;;
40176;SDS011;31511;46.176;9.874;2024-01-15T03:46:33;8.88;;;6.20;;
40176;SDS011;31511;46.176;9.874;2024-01-15T03:49:18;12.20;;;7.32;;
40176;SDS011;31511;46.176;9.874;2024-01-15T03:52:02;11.05;;;7.43;;
40176;SDS011;31511;46.176;9.874;2024-01-15T03:54:47;13.10;;;7.00;;
40176;SDS011;31511;46.176;9.874;2024-01-15T03:57:31;16.20;;;7.82;;
40176;SDS011;31511;46.176;9.874;2024-01-15T04:00:16;11.85;;;7.45;;
40176;SDS011;31511;46.176;9.874;2024-01-15T04:05:45;9.85;;;5.28;;
40176;SDS011;31511;46.176;9.874;2024-01-15T04:08:31;7.47;;;5.03;;
40176;SDS011;31511;46.176;9.874;2024-01-15T04:11:15;10.07;;;5.43;;
40176;SDS011;31511;46.176;9.874;2024-01-15T04:13:59;5.97;;;4.10;;
40176;SDS011;31511;46.176;9.874;2024-01-15T04:16:44;8.30;;;4.65;;
40176;SDS011;31511;46.176;9.874;2024-01-15T04:19:29;9.48;;;6.18;;
40176;SDS011;31511;46.176;9.874;2024-01-15T04:22:13;11.32;;;5.25;;
40176;SDS011;31511;46.176;9.874;2024-01-15T04:24:58;9.68;;;4.82;;
40176;SDS011;31511;46.176;9.874;2024-01-15T04:27:43;9.60;;;5.43;;
40176;SDS011;31511;46.176;9.874;2024-01-15T04:30:27;7.55;;;5.13;;
40176;SDS011;31511;46.176;9.874;2024-01-15T04:35:56;9.00;;;5.23;;
40176;SDS011;31511;46.176;9.874;2024-01-15T04:38:41;11.27;;;7.55;;
40176;SDS011;31511;46.176;9.874;2024-01-15T04:41:25;13.77;;;8.02;;
40176;SDS011;31511;46.176;9.874;2024-01-15T04:44:10;14.52;;;7.68;;
40176;SDS011;31511;46.176;9.874;2024-01-15T04:46:54;9.38;;;5.70;;
40176;SDS011;31511;46.176;9.874;2024-01-15T04:49:39;12.45;;;6.07;;
40176;SDS011;31511;46.176;9.874;2024-01-15T04:52:23;13.10;;;6.57;;
40176;SDS011;31511;46.176;9.874;2024-01-15T04:55:08;10.23;;;5.95;;
40176;SDS011;31511;46.176;9.874;2024-01-15T04:57:52;7.75;;;4.75;;
40176;SDS011;31511;46.176;9.874;2024-01-15T05:00:37;7.30;;;4.57;;
40176;SDS011;31511;46.176;9.874;2024-01-15T05:03:22;7.80;;;4.60;;
40176;SDS011;31511;46.176;9.874;2024-01-15T05:06:07;9.90;;;4.93;;
40176;SDS011;31511;46.176;9.874;2024-01-15T05:08:52;8.82;;;5.05;;
40176;SDS011;31511;46.176;9.874;2024-01-15T05:11:36;9.52;;;4.88;;
40176;SDS011;31511;46.176;9.874;2024-01-15T05:14:21;8.50;;;4.40;;
40176;SDS011;31511;46.176;9.874;2024-01-15T05:17:05;9.23;;;6.60;;
40176;SDS011;31511;46.176;9.874;2024-01-15T05:19:50;9.25;;;5.22;;
40176;SDS011;31511;46.176;9.874;2024-01-15T05:22:34;6.10;;;4.20;;
40176;SDS011;31511;46.176;9.874;2024-01-15T05:25:19;13.77;;;6.63;;
40176;SDS011;31511;46.176;9.874;2024-01-15T05:28:04;7.95;;;5.53;;
40176;SDS011;31511;46.176;9.874;2024-01-15T05:30:49;9.10;;;5.97;;
40176;SDS011;31511;46.176;9.874;2024-01-15T05:33:34;9.17;;;4.70;;
40176;SDS011;31511;46.176;9.874;2024-01-15T05:36:19;7.85;;;5.40;;
40176;SDS011;31511;46.176;9.874;2024-01-15T05:39:03;7.45;;;3.47;;
40176;SDS011;31511;46.176;9.874;2024-01-15T05:41:48;5.85;;;3.53;;
40176;SDS011;31511;46.176;9.874;2024-01-15T05:44:32;13.13;;;8.25;;
40176;SDS011;31511;46.176;9.874;2024-01-15T05:47:17;13.88;;;9.23;;
40176;SDS011;31511;46.176;9.874;2024-01-15T05:50:02;16.80;;;9.60;;
40176;SDS011;31511;46.176;9.874;2024-01-15T05:52:47;17.88;;;9.75;;
40176;SDS011;31511;46.176;9.874;2024-01-15T05:58:16;15.60;;;7.10;;
40176;SDS011;31511;46.176;9.874;2024-01-15T06:01:01;12.23;;;7.28;;
40176;SDS011;31511;46.176;9.874;2024-01-15T06:03:45;9.45;;;4.60;;
40176;SDS011;31511;46.176;9.874;2024-01-15T06:06:30;10.23;;;5.68;;
40176;SDS011;31511;46.176;9.874;2024-01-15T06:09:15;8.80;;;5.20;;
40176;SDS011;31511;46.176;9.874;2024-01-15T06:11:59;9.70;;;6.72;;
40176;SDS011;31511;46.176;9.874;2024-01-15T06:14:44;11.07;;;4.88;;
40176;SDS011;31511;46.176;9.874;2024-01-15T06:17:28;7.75;;;4.00;;
40176;SDS011;31511;46.176;9.874;2024-01-15T06:20:13;5.72;;;3.53;;
40176;SDS011;31511;46.176;9.874;2024-01-15T06:22:57;7.90;;;3.05;;
40176;SDS011;31511;46.176;9.874;2024-01-15T06:25:42;6.85;;;4.10;;
40176;SDS011;31511;46.176;9.874;2024-01-15T06:28:27;8.50;;;4.43;;
40176;SDS011;31511;46.176;9.874;2024-01-15T06:31:11;7.60;;;4.45;;
40176;SDS011;31511;46.176;9.874;2024-01-15T06:33:56;6.87;;;4.00;;
40176;SDS011;31511;46.176;9.874;2024-01-15T06:36:41;7.35;;;4.13;;
40176;SDS011;31511;46.176;9.874;2024-01-15T06:39:25;5.43;;;3.85;;
40176;SDS011;31511;46.176;9.874;2024-01-15T06:42:10;9.90;;;4.93;;
40176;SDS011;31511;46.176;9.874;2024-01-15T06:44:54;11.82;;;5.68;;
40176;SDS011;31511;46.176;9.874;2024-01-15T06:47:40;13.55;;;5.10;;
40176;SDS011;31511;46.176;9.874;2024-01-15T06:50:25;18.40;;;6.37;;
40176;SDS011;31511;46.176;9.874;2024-01-15T06:53:10;6.72;;;4.25;;
40176;SDS011;31511;46.176;9.874;2024-01-15T06:55:55;5.63;;;3.60;;
40176;SDS011;31511;46.176;9.874;2024-01-15T06:58:39;6.80;;;4.32;;
40176;SDS011;31511;46.176;9.874;2024-01-15T07:01:24;13.65;;;7.28;;
40176;SDS011;31511;46.176;9.874;2024-01-15T07:04:08;10.80;;;6.35;;
40176;SDS011;31511;46.176;9.874;2024-01-15T07:06:53;13.27;;;7.57;;
40176;SDS011;31511;46.176;9.874;2024-01-15T07:09:38;11.90;;;6.65;;
40176;SDS011;31511;46.176;9.874;2024-01-15T07:12:22;15.10;;;6.07;;
40176;SDS011;31511;46.176;9.874;2024-01-15T07:15:07;11.27;;;6.22;;
40176;SDS011;31511;46.176;9.874;2024-01-15T07:17:51;12.98;;;6.70;;
40176;SDS011;31511;46.176;9.874;2024-01-15T07:20:36;13.98;;;7.10;;
40176;SDS011;31511;46.176;9.874;2024-01-15T07:23:20;14.07;;;8.07;;
40176;SDS011;31511;46.176;9.874;2024-01-15T07:26:05;13.23;;;7.77;;
40176;SDS011;31511;46.176;9.874;2024-01-15T07:28:50;16.43;;;7.43;;
40176;SDS011;31511;46.176;9.874;2024-01-15T07:31:35;11.93;;;8.00;;
40176;SDS011;31511;46.176;9.874;2024-01-15T07:34:20;11.73;;;7.22;;
40176;SDS011;31511;46.176;9.874;2024-01-15T07:37:05;48.33;;;24.53;;
40176;SDS011;31511;46.176;9.874;2024-01-15T07:39:50;49.47;;;27.05;;
40176;SDS011;31511;46.176;9.874;2024-01-15T07:42:35;18.40;;;16.47;;
40176;SDS011;31511;46.176;9.874;2024-01-15T07:45:20;14.50;;;13.00;;
40176;SDS011;31511;46.176;9.874;2024-01-15T07:48:04;10.27;;;5.70;;
40176;SDS011;31511;46.176;9.874;2024-01-15T07:50:49;20.50;;;10.20;;
40176;SDS011;31511;46.176;9.874;2024-01-15T07:53:34;14.95;;;8.88;;
40176;SDS011;31511;46.176;9.874;2024-01-15T07:56:18;19.20;;;9.70;;
40176;SDS011;31511;46.176;9.874;2024-01-15T07:59:03;19.02;;;10.25;;
40176;SDS011;31511;46.176;9.874;2024-01-15T08:01:47;17.30;;;8.75;;
40176;SDS011;31511;46.176;9.874;2024-01-15T08:04:32;16.88;;;9.05;;
40176;SDS011;31511;46.176;9.874;2024-01-15T08:07:17;23.57;;;10.23;;
40176;SDS011;31511;46.176;9.874;2024-01-15T08:10:02;19.98;;;10.10;;
40176;SDS011;31511;46.176;9.874;2024-01-15T08:12:47;19.77;;;9.50;;
40176;SDS011;31511;46.176;9.874;2024-01-15T08:15:31;21.08;;;8.55;;
40176;SDS011;31511;46.176;9.874;2024-01-15T08:18:16;15.35;;;8.93;;
40176;SDS011;31511;46.176;9.874;2024-01-15T08:21:00;21.30;;;8.85;;
40176;SDS011;31511;46.176;9.874;2024-01-15T08:23:46;19.80;;;11.67;;
40176;SDS011;31511;46.176;9.874;2024-01-15T08:26:30;24.88;;;15.55;;
40176;SDS011;31511;46.176;9.874;2024-01-15T08:29:16;30.23;;;19.23;;
40176;SDS011;31511;46.176;9.874;2024-01-15T08:32:02;43.43;;;24.13;;
40176;SDS011;31511;46.176;9.874;2024-01-15T08:34:47;39.30;;;25.25;;
40176;SDS011;31511;46.176;9.874;2024-01-15T08:37:35;37.30;;;24.97;;
40176;SDS011;31511;46.176;9.874;2024-01-15T08:40:20;41.40;;;26.55;;
40176;SDS011;31511;46.176;9.874;2024-01-15T08:43:05;31.88;;;18.17;;
40176;SDS011;31511;46.176;9.874;2024-01-15T08:45:50;21.27;;;13.00;;
40176;SDS011;31511;46.176;9.874;2024-01-15T08:48:35;26.60;;;12.43;;
40176;SDS011;31511;46.176;9.874;2024-01-15T08:51:20;23.93;;;14.57;;
40176;SDS011;31511;46.176;9.874;2024-01-15T08:54:04;28.30;;;17.40;;
40176;SDS011;31511;46.176;9.874;2024-01-15T08:56:49;29.65;;;15.60;;
40176;SDS011;31511;46.176;9.874;2024-01-15T09:02:18;24.70;;;13.55;;
40176;SDS011;31511;46.176;9.874;2024-01-15T09:05:04;22.17;;;13.30;;
40176;SDS011;31511;46.176;9.874;2024-01-15T09:07:48;19.85;;;12.48;;
40176;SDS011;31511;46.176;9.874;2024-01-15T09:10:35;27.40;;;14.38;;
40176;SDS011;31511;46.176;9.874;2024-01-15T09:16:04;17.90;;;11.73;;
40176;SDS011;31511;46.176;9.874;2024-01-15T09:18:49;19.95;;;13.00;;
40176;SDS011;31511;46.176;9.874;2024-01-15T09:21:33;21.40;;;13.60;;
40176;SDS011;31511;46.176;9.874;2024-01-15T09:24:18;26.17;;;15.07;;
40176;SDS011;31511;46.176;9.874;2024-01-15T09:29:47;19.02;;;12.80;;
40176;SDS011;31511;46.176;9.874;2024-01-15T09:32:32;25.35;;;15.45;;
40176;SDS011;31511;46.176;9.874;2024-01-15T09:35:16;19.50;;;13.82;;
40176;SDS011;31511;46.176;9.874;2024-01-15T09:38:01;18.42;;;13.00;;
40176;SDS011;31511;46.176;9.874;2024-01-15T09:40:46;27.33;;;16.63;;
40176;SDS011;31511;46.176;9.874;2024-01-15T09:43:31;23.67;;;14.25;;
40176;SDS011;31511;46.176;9.874;2024-01-15T09:46:15;24.45;;;15.40;;
40176;SDS011;31511;46.176;9.874;2024-01-15T09:49:01;22.95;;;15.85;;
40176;SDS011;31511;46.176;9.874;2024-01-15T09:51:46;16.85;;;13.15;;
40176;SDS011;31511;46.176;9.874;2024-01-15T09:54:31;19.33;;;13.63;;
40176;SDS011;31511;46.176;9.874;2024-01-15T09:57:17;19.48;;;14.15;;
40176;SDS011;31511;46.176;9.874;2024-01-15T10:00:02;20.73;;;13.57;;
40176;SDS011;31511;46.176;9.874;2024-01-15T10:02:47;19.70;;;12.75;;
40176;SDS011;31511;46.176;9.874;2024-01-15T10:05:33;20.95;;;10.95;;
40176;SDS011;31511;46.176;9.874;2024-01-15T10:08:17;14.88;;;10.13;;
40176;SDS011;31511;46.176;9.874;2024-01-15T10:11:02;17.67;;;11.43;;
40176;SDS011;31511;46.176;9.874;2024-01-15T10:13:48;17.08;;;10.20;;
40176;SDS011;31511;46.176;9.874;2024-01-15T10:16:36;15.25;;;10.13;;
40176;SDS011;31511;46.176;9.874;2024-01-15T10:19:21;12.70;;;8.50;;
40176;SDS011;31511;46.176;9.874;2024-01-15T10:22:08;18.70;;;10.82;;
40176;SDS011;31511;46.176;9.874;2024-01-15T10:24:52;16.27;;;11.25;;
40176;SDS011;31511;46.176;9.874;2024-01-15T10:27:37;18.48;;;11.15;;
40176;SDS011;31511;46.176;9.874;2024-01-15T10:30:24;16.98;;;9.57;;
40176;SDS011;31511;46.176;9.874;2024-01-15T10:33:08;15.13;;;10.15;;
40176;SDS011;31511;46.176;9.874;2024-01-15T10:35:53;13.35;;;9.85;;
40176;SDS011;31511;46.176;9.874;2024-01-15T10:38:38;15.38;;;10.52;;
40176;SDS011;31511;46.176;9.874;2024-01-15T10:41:23;14.15;;;10.68;;
40176;SDS011;31511;46.176;9.874;2024-01-15T10:44:08;15.35;;;10.27;;
40176;SDS011;31511;46.176;9.874;2024-01-15T10:46:52;12.98;;;9.48;;
40176;SDS011;31511;46.176;9.874;2024-01-15T10:49:37;13.48;;;9.80;;
40176;SDS011;31511;46.176;9.874;2024-01-15T10:52:23;13.25;;;9.43;;
40176;SDS011;31511;46.176;9.874;2024-01-15T10:55:08;19.10;;;11.20;;
40176;SDS011;31511;46.176;9.874;2024-01-15T10:57:53;14.93;;;9.10;;
40176;SDS011;31511;46.176;9.874;2024-01-15T11:00:40;16.10;;;10.13;;
40176;SDS011;31511;46.176;9.874;2024-01-15T11:03:24;17.52;;;9.60;;
40176;SDS011;31511;46.176;9.874;2024-01-15T11:06:17;13.75;;;8.73;;
40176;SDS011;31511;46.176;9.874;2024-01-15T11:09:04;17.23;;;9.30;;
40176;SDS011;31511;46.176;9.874;2024-01-15T11:11:52;15.90;;;7.78;;
40176;SDS011;31511;46.176;9.874;2024-01-15T11:14:41;14.77;;;9.45;;
40176;SDS011;31511;46.176;9.874;2024-01-15T11:17:31;9.73;;;6.32;;
40176;SDS011;31511;46.176;9.874;2024-01-15T11:20:34;9.07;;;6.60;;
40176;SDS011;31511;46.176;9.874;2024-01-15T11:32:11;15.13;;;6.65;;
40176;SDS011;31511;46.176;9.874;2024-01-15T11:34:59;12.80;;;6.78;;
40176;SDS011;31511;46.176;9.874;2024-01-15T11:40:40;12.65;;;6.43;;
40176;SDS011;31511;46.176;9.874;2024-01-15T11:43:27;12.30;;;6.60;;
40176;SDS011;31511;46.176;9.874;2024-01-15T11:46:15;12.77;;;7.15;;
40176;SDS011;31511;46.176;9.874;2024-01-15T11:49:03;7.97;;;5.50;;
40176;SDS011;31511;46.176;9.874;2024-01-15T11:51:49;9.48;;;5.90;;
40176;SDS011;31511;46.176;9.874;2024-01-15T11:54:36;8.15;;;5.22;;
40176;SDS011;31511;46.176;9.874;2024-01-15T11:57:25;10.18;;;6.22;;
40176;SDS011;31511;46.176;9.874;2024-01-15T12:00:14;8.93;;;5.28;;
40176;SDS011;31511;46.176;9.874;2024-01-15T12:02:59;9.68;;;6.22;;
40176;SDS011;31511;46.176;9.874;2024-01-15T12:05:45;8.80;;;4.95;;
40176;SDS011;31511;46.176;9.874;2024-01-15T12:08:30;10.88;;;6.60;;
40176;SDS011;31511;46.176;9.874;2024-01-15T12:11:15;11.27;;;5.75;;
40176;SDS011;31511;46.176;9.874;2024-01-15T12:14:01;12.38;;;6.03;;
40176;SDS011;31511;46.176;9.874;2024-01-15T12:16:46;12.05;;;7.25;;
40176;SDS011;31511;46.176;9.874;2024-01-15T12:19:30;10.73;;;7.18;;
40176;SDS011;31511;46.176;9.874;2024-01-15T12:22:15;9.88;;;7.05;;
40176;SDS011;31511;46.176;9.874;2024-01-15T12:24:59;11.35;;;6.30;;
40176;SDS011;31511;46.176;9.874;2024-01-15T12:27:44;8.35;;;5.75;;
40176;SDS011;31511;46.176;9.874;2024-01-15T12:30:29;8.30;;;4.63;;
40176;SDS011;31511;46.176;9.874;2024-01-15T12:33:17;7.93;;;3.38;;
40176;SDS011;31511;46.176;9.874;2024-01-15T12:36:03;4.22;;;2.80;;
40176;SDS011;31511;46.176;9.874;2024-01-15T12:38:48;7.80;;;2.53;;
40176;SDS011;31511;46.176;9.874;2024-01-15T12:41:33;5.35;;;3.00;;
40176;SDS011;31511;46.176;9.874;2024-01-15T12:44:18;5.80;;;3.80;;
40176;SDS011;31511;46.176;9.874;2024-01-15T12:47:04;5.15;;;3.70;;
40176;SDS011;31511;46.176;9.874;2024-01-15T12:49:51;5.65;;;3.35;;
40176;SDS011;31511;46.176;9.874;2024-01-15T12:52:37;7.13;;;4.10;;
40176;SDS011;31511;46.176;9.874;2024-01-15T12:55:21;9.18;;;4.80;;
40176;SDS011;31511;46.176;9.874;2024-01-15T12:58:06;9.25;;;5.38;;
40176;SDS011;31511;46.176;9.874;2024-01-15T13:00:51;6.22;;;4.60;;
40176;SDS011;31511;46.176;9.874;2024-01-15T13:03:35;7.00;;;4.63;;
40176;SDS011;31511;46.176;9.874;2024-01-15T13:06:20;6.88;;;4.57;;
40176;SDS011;31511;46.176;9.874;2024-01-15T13:09:05;6.32;;;4.10;;
40176;SDS011;31511;46.176;9.874;2024-01-15T13:11:49;7.60;;;3.40;;
40176;SDS011;31511;46.176;9.874;2024-01-15T13:14:34;8.65;;;4.72;;
40176;SDS011;31511;46.176;9.874;2024-01-15T13:17:20;11.32;;;5.57;;
40176;SDS011;31511;46.176;9.874;2024-01-15T13:20:05;10.35;;;5.47;;
40176;SDS011;31511;46.176;9.874;2024-01-15T13:22:50;12.65;;;4.63;;
40176;SDS011;31511;46.176;9.874;2024-01-15T13:25:35;8.38;;;4.43;;
40176;SDS011;31511;46.176;9.874;2024-01-15T13:28:21;9.30;;;5.10;;
40176;SDS011;31511;46.176;9.874;2024-01-15T13:31:06;12.52;;;4.95;;
40176;SDS011;31511;46.176;9.874;2024-01-15T13:33:52;51.78;;;20.70;;
40176;SDS011;31511;46.176;9.874;2024-01-15T13:36:36;32.78;;;14.35;;
40176;SDS011;31511;46.176;9.874;2024-01-15T13:39:22;8.27;;;5.22;;
40176;SDS011;31511;46.176;9.874;2024-01-15T13:42:06;12.50;;;8.18;;
40176;SDS011;31511;46.176;9.874;2024-01-15T13:44:51;7.88;;;4.28;;
40176;SDS011;31511;46.176;9.874;2024-01-15T13:47:36;8.27;;;3.72;;
40176;SDS011;31511;46.176;9.874;2024-01-15T13:50:20;6.20;;;3.35;;
40176;SDS011;31511;46.176;9.874;2024-01-15T13:53:06;6.50;;;3.70;;
40176;SDS011;31511;46.176;9.874;2024-01-15T13:55:52;6.15;;;2.50;;
40176;SDS011;31511;46.176;9.874;2024-01-15T13:58:37;13.68;;;6.78;;
40176;SDS011;31511;46.176;9.874;2024-01-15T14:01:21;113.82;;;43.17;;
40176;SDS011;31511;46.176;9.874;2024-01-15T14:04:06;24.00;;;9.18;;
40176;SDS011;31511;46.176;9.874;2024-01-15T14:06:51;10.25;;;3.95;;
40176;SDS011;31511;46.176;9.874;2024-01-15T14:12:21;6.70;;;3.40;;
40176;SDS011;31511;46.176;9.874;2024-01-15T14:15:06;4.75;;;2.92;;
40176;SDS011;31511;46.176;9.874;2024-01-15T14:17:50;9.52;;;3.58;;
40176;SDS011;31511;46.176;9.874;2024-01-15T14:20:36;20.92;;;9.45;;
40176;SDS011;31511;46.176;9.874;2024-01-15T14:23:21;6.35;;;3.00;;
40176;SDS011;31511;46.176;9.874;2024-01-15T14:26:06;10.77;;;6.20;;
40176;SDS011;31511;46.176;9.874;2024-01-15T14:34:20;7.75;;;3.25;;
40176;SDS011;31511;46.176;9.874;2024-01-15T14:37:06;4.70;;;2.78;;
40176;SDS011;31511;46.176;9.874;2024-01-15T14:39:51;5.43;;;3.47;;
40176;SDS011;31511;46.176;9.874;2024-01-15T14:42:36;7.72;;;4.07;;
40176;SDS011;31511;46.176;9.874;2024-01-15T14:45:21;6.05;;;3.92;;
40176;SDS011;31511;46.176;9.874;2024-01-15T14:48:06;9.73;;;4.10;;
40176;SDS011;31511;46.176;9.874;2024-01-15T14:50:51;9.43;;;3.53;;
40176;SDS011;31511;46.176;9.874;2024-01-15T14:56:20;8.05;;;5.07;;
40176;SDS011;31511;46.176;9.874;2024-01-15T14:59:05;9.02;;;5.65;;
40176;SDS011;31511;46.176;9.874;2024-01-15T15:01:50;18.95;;;5.70;;
40176;SDS011;31511;46.176;9.874;2024-01-15T15:04:35;14.00;;;5.30;;
40176;SDS011;31511;46.176;9.874;2024-01-15T15:10:04;15.32;;;4.97;;
40176;SDS011;31511;46.176;9.874;2024-01-15T15:12:49;11.85;;;3.67;;
40176;SDS011;31511;46.176;9.874;2024-01-15T15:15:34;9.07;;;4.95;;
40176;SDS011;31511;46.176;9.874;2024-01-15T15:18:18;14.10;;;4.97;;
40176;SDS011;31511;46.176;9.874;2024-01-15T15:21:03;9.25;;;5.28;;
40176;SDS011;31511;46.176;9.874;2024-01-15T15:26:32;9.93;;;4.47;;
40176;SDS011;31511;46.176;9.874;2024-01-15T15:29:17;19.05;;;6.75;;
40176;SDS011;31511;46.176;9.874;2024-01-15T15:32:02;15.38;;;8.30;;
40176;SDS011;31511;46.176;9.874;2024-01-15T15:34:46;17.50;;;6.88;;
40176;SDS011;31511;46.176;9.874;2024-01-15T15:40:16;18.95;;;6.32;;
40176;SDS011;31511;46.176;9.874;2024-01-15T15:43:01;13.05;;;5.95;;
40176;SDS011;31511;46.176;9.874;2024-01-15T15:48:31;15.02;;;6.95;;
40176;SDS011;31511;46.176;9.874;2024-01-15T15:51:17;13.23;;;6.72;;
40176;SDS011;31511;46.176;9.874;2024-01-15T15:54:02;13.25;;;6.15;;
40176;SDS011;31511;46.176;9.874;2024-01-15T15:56:49;16.13;;;7.32;;
40176;SDS011;31511;46.176;9.874;2024-01-15T15:59:34;11.38;;;5.63;;
40176;SDS011;31511;46.176;9.874;2024-01-15T16:02:19;15.23;;;6.78;;
40176;SDS011;31511;46.176;9.874;2024-01-15T16:05:04;11.88;;;5.47;;
40176;SDS011;31511;46.176;9.874;2024-01-15T16:07:53;11.10;;;6.53;;
40176;SDS011;31511;46.176;9.874;2024-01-15T16:10:37;8.65;;;6.00;;
40176;SDS011;31511;46.176;9.874;2024-01-15T16:13:23;14.82;;;6.50;;
40176;SDS011;31511;46.176;9.874;2024-01-15T16:16:07;13.63;;;6.70;;
40176;SDS011;31511;46.176;9.874;2024-01-15T16:18:52;11.15;;;6.93;;
40176;SDS011;31511;46.176;9.874;2024-01-15T16:21:37;11.48;;;6.45;;
40176;SDS011;31511;46.176;9.874;2024-01-15T16:24:21;21.30;;;7.35;;
40176;SDS011;31511;46.176;9.874;2024-01-15T16:27:08;12.65;;;6.72;;
40176;SDS011;31511;46.176;9.874;2024-01-15T16:32:37;20.30;;;9.30;;
40176;SDS011;31511;46.176;9.874;2024-01-15T16:35:22;22.98;;;10.25;;
40176;SDS011;31511;46.176;9.874;2024-01-15T16:40:51;19.75;;;10.85;;
40176;SDS011;31511;46.176;9.874;2024-01-15T16:43:36;21.55;;;11.93;;
40176;SDS011;31511;46.176;9.874;2024-01-15T16:46:21;21.95;;;11.45;;
40176;SDS011;31511;46.176;9.874;2024-01-15T16:49:05;15.77;;;10.77;;
40176;SDS011;31511;46.176;9.874;2024-01-15T16:51:53;15.02;;;8.88;;
40176;SDS011;31511;46.176;9.874;2024-01-15T16:54:38;17.25;;;8.30;;
40176;SDS011;31511;46.176;9.874;2024-01-15T16:57:23;13.90;;;8.48;;
40176;SDS011;31511;46.176;9.874;2024-01-15T17:00:07;13.98;;;8.38;;
40176;SDS011;31511;46.176;9.874;2024-01-15T17:02:53;14.18;;;8.18;;
40176;SDS011;31511;46.176;9.874;2024-01-15T17:05:37;14.95;;;8.50;;
40176;SDS011;31511;46.176;9.874;2024-01-15T17:08:22;16.15;;;8.02;;
40176;SDS011;31511;46.176;9.874;2024-01-15T17:11:07;23.00;;;13.57;;
40176;SDS011;31511;46.176;9.874;2024-01-15T17:13:52;27.08;;;14.50;;
40176;SDS011;31511;46.176;9.874;2024-01-15T17:16:36;26.23;;;13.63;;
40176;SDS011;31511;46.176;9.874;2024-01-15T17:22:05;28.15;;;12.18;;
40176;SDS011;31511;46.176;9.874;2024-01-15T17:27:35;18.00;;;10.02;;
40176;SDS011;31511;46.176;9.874;2024-01-15T17:30:20;18.38;;;10.13;;